createdAt,value
2023-02-26T09:49:12.464Z,1.20
2023-02-26T09:51:39.363Z,1.25
2023-02-26T09:54:17.471Z,1.20
2023-02-26T09:56:44.941Z,1.23
2023-02-26T09:59:11.705Z,1.00
2023-02-26T10:01:46.644Z,1.10
2023-02-26T10:04:25.828Z,1.27
2023-02-26T10:07:11.030Z,1.00
2023-02-26T10:10:08.897Z,0.93
2023-02-26T10:12:40.091Z,1.10
2023-02-26T10:15:26.869Z,1.50
2023-02-26T10:18:17.503Z,1.30
2023-02-26T10:20:54.645Z,1.20
2023-02-26T10:23:31.721Z,1.05
2023-02-26T10:26:09.488Z,1.20
2023-02-26T10:28:47.769Z,1.10
2023-02-26T10:31:22.085Z,1.13
2023-02-26T10:34:05.462Z,1.00
2023-02-26T10:37:02.010Z,1.20
2023-02-26T10:39:47.421Z,1.00
2023-02-26T10:42:30.882Z,1.20
2023-02-26T10:45:09.294Z,1.60
2023-02-26T10:47:44.676Z,1.10
2023-02-26T10:50:14.514Z,1.10
2023-02-26T10:52:43.619Z,1.20
2023-02-26T10:55:27.672Z,1.25
2023-02-26T10:58:05.054Z,1.45
2023-02-26T11:00:31.868Z,1.40
2023-02-26T11:02:58.704Z,1.50
2023-02-26T11:05:28.899Z,1.40
2023-02-26T11:08:01.476Z,1.27
2023-02-26T11:10:38.917Z,1.15
2023-02-26T11:13:05.270Z,1.13
2023-02-26T11:15:32.279Z,1.15
2023-02-26T11:18:00.291Z,1.40
2023-02-26T11:20:33.681Z,1.40
2023-02-26T11:23:02.538Z,1.23
2023-02-26T11:25:32.590Z,1.27
2023-02-26T11:28:03.431Z,1.20
2023-02-26T11:30:36.944Z,1.20
2023-02-26T11:33:18.206Z,1.30
2023-02-26T11:35:46.730Z,1.50
2023-02-26T11:38:25.165Z,1.00
2023-02-26T11:40:57.989Z,1.10
2023-02-26T11:43:36.387Z,1.58
2023-02-26T11:46:05.779Z,1.27
2023-02-26T11:48:49.151Z,1.10
2023-02-26T11:51:20.230Z,1.20
2023-02-26T11:53:53.832Z,1.13
2023-02-26T11:56:26.860Z,1.38
2023-02-26T11:58:55.456Z,1.10
2023-02-26T12:01:28.414Z,1.30
2023-02-26T12:03:59.654Z,1.30
2023-02-26T12:06:26.108Z,1.10
2023-02-26T12:08:53.998Z,1.10
2023-02-26T12:11:43.792Z,1.20
2023-02-26T12:14:38.863Z,1.17
2023-02-26T12:17:27.308Z,1.08
2023-02-26T12:20:15.012Z,1.13
2023-02-26T12:23:02.048Z,1.27
2023-02-26T12:26:00.100Z,1.80
2023-02-26T12:28:39.273Z,1.75
2023-02-26T12:31:32.681Z,2.08
2023-02-26T12:34:20.341Z,1.80
2023-02-26T12:37:17.526Z,1.92
2023-02-26T12:39:54.424Z,1.80
2023-02-26T12:42:51.343Z,2.00
2023-02-26T12:45:36.231Z,2.00
2023-02-26T12:48:21.370Z,1.60
2023-02-26T12:51:16.130Z,1.80
2023-02-26T12:54:06.278Z,2.20
2023-02-26T12:56:48.251Z,2.35
2023-02-26T13:02:07.043Z,45.35
2023-02-26T13:05:04.230Z,30.02
2023-02-26T13:07:50.662Z,20.35
2023-02-26T13:10:41.853Z,16.40
2023-02-26T13:13:47.313Z,14.00
2023-02-26T13:16:24.995Z,11.05
2023-02-26T13:19:05.419Z,10.77
2023-02-26T13:21:39.180Z,9.80
2023-02-26T13:24:18.733Z,10.00
2023-02-26T13:26:47.664Z,8.60
2023-02-26T13:29:19.584Z,9.13
2023-02-26T13:31:49.634Z,9.23
2023-02-26T13:34:23.416Z,9.35
2023-02-26T13:36:50.990Z,7.95
2023-02-26T13:39:39.591Z,7.60
2023-02-26T13:42:19.501Z,6.05
2023-02-26T13:44:54.346Z,6.00
2023-02-26T13:47:58.531Z,5.55
2023-02-26T13:50:59.789Z,5.30
2023-02-26T13:53:41.221Z,4.60
2023-02-26T13:56:14.628Z,4.75
2023-02-26T13:58:43.975Z,4.10
2023-02-26T14:01:26.633Z,4.15
2023-02-26T14:04:24.899Z,3.92
2023-02-26T14:06:57.965Z,3.70
2023-02-26T14:09:25.525Z,3.90
2023-02-26T14:12:13.629Z,3.70
2023-02-26T14:14:44.327Z,3.40
2023-02-26T14:17:10.648Z,3.60
2023-02-26T14:19:57.200Z,3.00
2023-02-26T14:22:29.278Z,3.58
2023-02-26T14:25:12.035Z,3.22
2023-02-26T14:27:43.559Z,3.17
2023-02-26T14:30:09.846Z,3.10
2023-02-26T14:33:08.390Z,3.03
2023-02-26T14:35:40.668Z,3.20
2023-02-26T14:38:11.118Z,3.10
2023-02-26T14:40:49.446Z,3.05
2023-02-26T14:43:21.900Z,65.00
2023-02-26T14:45:49.984Z,74.28
2023-02-26T14:48:18.695Z,29.63
2023-02-26T14:51:08.907Z,21.25
2023-02-26T14:54:00.452Z,18.23
2023-02-26T14:56:51.920Z,15.27
2023-02-26T14:59:38.810Z,15.07
2023-02-26T15:02:26.683Z,13.43
2023-02-26T15:05:10.801Z,13.38
2023-02-26T15:08:05.350Z,12.32
2023-02-26T15:10:46.969Z,11.15
2023-02-26T15:13:28.306Z,9.93
2023-02-26T15:15:56.374Z,9.95
2023-02-26T15:18:37.404Z,9.02
2023-02-26T15:21:17.537Z,7.35
2023-02-26T15:23:53.377Z,8.05
2023-02-26T15:26:25.015Z,7.60
2023-02-26T15:28:53.189Z,7.30
2023-02-26T15:31:22.141Z,109.15
2023-02-26T15:33:49.699Z,38.63
2023-02-26T15:36:21.819Z,27.77
2023-02-26T15:38:54.870Z,18.90
2023-02-26T15:41:23.348Z,15.70
2023-02-26T15:43:53.793Z,14.65
2023-02-26T15:46:27.416Z,13.48
2023-02-26T15:48:58.416Z,11.65
2023-02-26T15:51:25.128Z,10.18
2023-02-26T15:53:53.470Z,9.00
2023-02-26T15:56:24.606Z,8.98
2023-02-26T15:59:03.569Z,8.18
2023-02-26T16:01:31.176Z,8.10
2023-02-26T16:04:01.026Z,7.82
2023-02-26T16:06:32.884Z,7.38
2023-02-26T16:08:59.928Z,7.10
2023-02-26T16:11:35.114Z,7.05
2023-02-26T16:14:03.062Z,7.13
2023-02-26T16:16:39.752Z,7.10
2023-02-26T16:19:06.633Z,7.28
2023-02-26T16:21:40.185Z,5.85
2023-02-26T16:24:10.801Z,6.00
2023-02-26T16:26:45.511Z,6.28
2023-02-26T16:29:20.859Z,5.97
2023-02-26T16:31:52.668Z,5.75
2023-02-26T16:34:45.499Z,4.93
2023-02-26T16:37:31.681Z,5.03
2023-02-26T16:40:20.046Z,18.55
2023-02-26T16:43:01.757Z,43.42
2023-02-26T16:45:37.199Z,28.67
2023-02-26T16:48:10.844Z,23.30
2023-02-26T16:50:37.905Z,19.92
2023-02-26T16:53:04.195Z,18.75
2023-02-26T16:55:34.102Z,17.65
2023-02-26T16:58:06.114Z,16.63
2023-02-26T17:00:33.977Z,16.38
2023-02-26T17:03:12.887Z,14.35
2023-02-26T17:05:42.360Z,14.90
2023-02-26T17:08:15.857Z,14.20
2023-02-26T17:10:48.251Z,13.15
2023-02-26T17:13:22.098Z,13.18
2023-02-26T17:15:50.574Z,12.80
2023-02-26T17:18:17.646Z,12.40
2023-02-26T17:20:44.772Z,11.40
2023-02-26T17:23:15.219Z,10.23
2023-02-26T17:25:47.417Z,10.43
2023-02-26T17:28:21.101Z,9.52
2023-02-26T17:30:47.527Z,9.30
2023-02-26T17:33:14.636Z,8.57
2023-02-26T17:35:42.710Z,8.05
2023-02-26T17:38:15.977Z,6.38
2023-02-26T17:40:47.389Z,5.57
2023-02-26T17:43:13.765Z,4.93
2023-02-26T17:45:40.947Z,4.85
2023-02-26T17:48:08.379Z,4.68
2023-02-26T17:50:53.858Z,4.63
2023-02-26T17:53:22.291Z,4.00
2023-02-26T17:55:52.299Z,3.95
2023-02-26T17:58:26.151Z,3.50
2023-02-26T18:00:53.281Z,3.58
2023-02-26T18:03:20.745Z,3.55
2023-02-26T18:05:48.911Z,3.17
2023-02-26T18:08:21.338Z,3.13
2023-02-26T18:10:47.871Z,2.80
2023-02-26T18:13:14.476Z,3.20
2023-02-26T18:15:41.000Z,2.88
2023-02-26T18:18:11.035Z,2.90
2023-02-26T18:20:37.427Z,2.75
2023-02-26T18:23:05.221Z,2.75
2023-02-26T18:25:31.590Z,2.47
2023-02-26T18:28:00.838Z,2.38
2023-02-26T18:30:30.658Z,2.30
2023-02-26T18:32:57.361Z,2.20
2023-02-26T18:35:28.862Z,2.15
2023-02-26T18:37:55.553Z,2.30
2023-02-26T18:40:24.090Z,2.50
2023-02-26T18:42:51.508Z,2.45
2023-02-26T18:45:19.113Z,1.92
2023-02-26T18:47:46.752Z,2.15
2023-02-26T18:50:15.553Z,41.08
2023-02-26T18:52:43.169Z,37.70
2023-02-26T18:55:14.723Z,23.05
2023-02-26T18:57:42.450Z,24.35
2023-02-26T19:00:14.273Z,14.30
2023-02-26T19:02:44.860Z,11.77
2023-02-26T19:05:12.922Z,10.50
2023-02-26T19:07:39.862Z,9.80
2023-02-26T19:10:09.340Z,9.85
2023-02-26T19:12:35.708Z,10.52
2023-02-26T19:15:02.186Z,10.10
2023-02-26T19:17:28.795Z,10.10
2023-02-26T19:19:55.201Z,9.40
2023-02-26T19:22:21.558Z,8.70
2023-02-26T19:24:48.236Z,8.43
2023-02-26T19:27:15.069Z,7.63
2023-02-26T19:29:42.034Z,8.75
2023-02-26T19:32:09.026Z,7.72
2023-02-26T19:34:35.704Z,7.32
2023-02-26T19:37:02.116Z,6.90
2023-02-26T19:39:29.023Z,6.05
2023-02-26T19:41:55.675Z,6.25
2023-02-26T19:44:22.840Z,5.75
2023-02-26T19:46:49.740Z,5.13
2023-02-26T19:49:17.143Z,5.22
2023-02-26T19:51:43.724Z,5.45
2023-02-26T19:54:10.525Z,4.60
2023-02-26T19:56:36.900Z,4.90
2023-02-26T19:59:03.257Z,5.00
2023-02-26T20:01:30.221Z,4.25
2023-02-26T20:03:56.796Z,3.90
2023-02-26T20:06:23.181Z,4.03
2023-02-26T20:08:49.604Z,4.00
2023-02-26T20:11:15.970Z,5.57
2023-02-26T20:13:42.383Z,20.05
2023-02-26T20:16:10.330Z,29.67
2023-02-26T20:18:37.403Z,18.83
2023-02-26T20:21:09.567Z,16.70
2023-02-26T20:23:37.925Z,16.83
2023-02-26T20:26:10.581Z,14.15
2023-02-26T20:28:37.493Z,12.82
2023-02-26T20:31:04.978Z,11.80
2023-02-26T20:33:33.246Z,12.88
2023-02-26T20:36:00.180Z,11.77
2023-02-26T20:38:27.915Z,10.05
2023-02-26T20:40:55.217Z,9.82
2023-02-26T20:43:21.597Z,10.65
2023-02-26T20:45:49.367Z,9.85
2023-02-26T20:48:15.768Z,9.18
2023-02-26T20:50:42.287Z,8.18
2023-02-26T20:53:08.751Z,7.53
2023-02-26T20:55:35.647Z,7.75
2023-02-26T20:58:03.216Z,7.63
2023-02-26T21:00:29.849Z,86.55
2023-02-26T21:02:56.297Z,92.80
2023-02-26T21:05:23.191Z,42.67
2023-02-26T21:07:50.694Z,27.38
2023-02-26T21:10:19.054Z,22.77
2023-02-26T21:12:45.955Z,21.92
2023-02-26T21:15:13.219Z,20.55
2023-02-26T21:17:41.444Z,17.13
2023-02-26T21:20:10.247Z,17.17
2023-02-26T21:22:36.675Z,16.13
2023-02-26T21:25:06.350Z,15.93
2023-02-26T21:27:33.583Z,14.13
2023-02-26T21:29:59.955Z,13.75
2023-02-26T21:32:26.728Z,13.68
2023-02-26T21:34:53.196Z,12.90
2023-02-26T21:37:19.579Z,12.85
2023-02-26T21:39:46.729Z,11.23
2023-02-26T21:42:13.301Z,10.63
2023-02-26T21:44:39.972Z,10.63
2023-02-26T21:47:06.662Z,10.60
2023-02-26T21:49:33.057Z,9.95
2023-02-26T21:52:00.352Z,8.20
2023-02-26T21:54:26.803Z,8.27
2023-02-26T21:56:53.590Z,7.95
2023-02-26T21:59:20.100Z,6.90
2023-02-26T22:01:46.443Z,6.88
2023-02-26T22:04:12.836Z,6.47
2023-02-26T22:06:39.219Z,6.15
2023-02-26T22:09:05.593Z,6.05
2023-02-26T22:11:32.112Z,5.07
2023-02-26T22:13:58.506Z,5.20
2023-02-26T22:16:24.874Z,5.03
2023-02-26T22:18:51.283Z,4.57
2023-02-26T22:21:17.989Z,4.90
2023-02-26T22:23:44.344Z,3.80
2023-02-26T22:26:11.186Z,4.10
2023-02-26T22:28:37.556Z,4.30
2023-02-26T22:31:04.046Z,4.00
2023-02-26T22:33:30.480Z,3.42
2023-02-26T22:35:58.719Z,10.13
2023-02-26T22:38:25.437Z,7.95
2023-02-26T22:40:51.975Z,5.80
2023-02-26T22:43:18.464Z,5.93
2023-02-26T22:45:44.871Z,5.10
2023-02-26T22:48:11.346Z,4.57
2023-02-26T22:50:37.720Z,4.50
2023-02-26T22:53:04.639Z,4.32
2023-02-26T22:55:31.024Z,3.88
2023-02-26T22:57:57.395Z,3.72
2023-02-26T23:00:23.980Z,3.75
2023-02-26T23:02:50.788Z,3.85
2023-02-26T23:05:19.216Z,2.73
2023-02-26T23:07:46.066Z,2.60
2023-02-26T23:10:14.988Z,2.80
2023-02-26T23:12:42.423Z,2.80
2023-02-26T23:15:09.903Z,2.90
2023-02-26T23:17:36.511Z,2.50
2023-02-26T23:20:04.588Z,2.85
2023-02-26T23:22:30.992Z,2.47
2023-02-26T23:24:57.361Z,2.40
2023-02-26T23:27:23.738Z,2.50
2023-02-26T23:29:50.176Z,2.80
2023-02-26T23:32:16.676Z,2.50
2023-02-26T23:34:43.112Z,2.72
2023-02-26T23:37:09.484Z,2.40
2023-02-26T23:39:35.881Z,2.30
2023-02-26T23:42:02.402Z,2.40
2023-02-26T23:44:28.823Z,2.38
2023-02-26T23:46:55.165Z,2.25
2023-02-26T23:49:21.522Z,2.30
2023-02-26T23:51:47.869Z,2.30
2023-02-26T23:54:14.413Z,2.22
2023-02-26T23:56:40.972Z,2.00
2023-02-26T23:59:07.989Z,2.30
